• Join FlightAware (Why Join?)
  • Login
  • US Flag 
08:39PM EDT


 

Airport Tracker/Info


-or-


 

Live Flight TrackerFlight Track Log ✈ N935SS ✈ 12-Jul-2013 ✈ KDEN - KLAS

Flight Track Log - Related Links

Times and Time Zones

All times are in EDT time to prevent confusion due to time zone crossing. See the N935SS flight status page for this flight to view local times or setup timezone preferences in your user account.

Time Position Orientation Groundspeed Altitude Reporting Facility
EDT Latitude Longitude Course Direction KTS MPH feet Rate Location/Type
11:37AM 39.9167 -104.7167 339° North 210 242 6,400  Level Denver TRACON
11:38AM 39.9833 -104.7500 339° North 279 321 8,100 1,740 Climbing Denver TRACON
11:39AM 40.0286 -104.7636 347° North 289 333 9,300 1,860 Climbing Denver Center
11:40AM 40.0864 -104.8414 314° West 333 383 11,300 1,980 Climbing Denver Center
11:41AM 40.0678 -104.9656 259° West 329 379 13,400 1,980 Climbing Denver Center
11:42AM 40.0331 -105.0800 248° West 338 389 15,400 1,980 Climbing Denver Center
11:43AM 39.9914 -105.2003 246° West 337 388 17,600 1,980 Climbing Denver Center
11:44AM 39.9322 -105.2958 231° Southwest 337 388 19,500 1,920 Climbing Denver Center
11:45AM 39.8664 -105.4006 231° Southwest 347 399 21,600 1,680 Climbing Denver Center
11:46AM 39.8061 -105.4969 231° Southwest 344 396 23,000 1,080 Climbing Denver Center
11:47AM 39.7339 -105.6108 231° Southwest 380 437 23,900 1,020 Climbing Denver Center
11:48AM 39.6928 -105.7194 244° Southwest 383 441 25,200 960 Climbing Denver Center
11:49AM 39.6783 -105.8547 262° West 369 425 26,000 480 Climbing Denver Center
11:50AM 39.6578 -106.0336 262° West 418 481 26,200 480 Climbing Denver Center
11:51AM 39.6428 -106.1708 262° West 427 491 27,100 900 Climbing Denver Center
11:52AM 39.6239 -106.3200 261° West 421 484 28,100 1,020 Climbing Denver Center
11:53AM 39.5714 -106.4828 247° West 409 471 29,300 960 Climbing Denver Center
11:54AM 39.5319 -106.6056 247° West 406 467 30,200 960 Climbing Denver Center
11:55AM 39.4836 -106.7553 247° West 404 465 31,400 960 Climbing Denver Center
11:56AM 39.4397 -106.8839 246° West 410 472 32,300 960 Climbing Denver Center
11:57AM 39.3950 -107.0350 249° West 405 466 33,400 780 Climbing Denver Center
11:58AM 39.3558 -107.1664 249° West 407 468 34,000 660 Climbing Denver Center
11:59AM 39.3089 -107.3233 249° West 415 478 34,800 720 Climbing Denver Center
12:00PM 39.2689 -107.4567 249° West 416 479 35,500 720 Climbing Denver Center
12:01PM 39.2217 -107.6139 249° West 419 482 36,300 660 Climbing Denver Center
12:02PM 39.1811 -107.7475 249° West 417 480 36,900 660 Climbing Denver Center
12:04PM 39.1336 -107.9047 249° West 420 483 37,700 480 Climbing Denver Center
12:05PM 39.0933 -108.0381 249° West 418 481 38,000 120 Climbing Denver Center
12:06PM 39.0428 -108.2011 248° West 435 501 38,000  Level Denver Center
12:07PM 38.9972 -108.3467 248° West 468 539 38,000  Level Denver Center
12:08PM 38.9631 -108.4639 249° West 448 516 38,000  Level Denver Center
12:09PM 38.9042 -108.6533 248° West 440 506 38,000  Level Denver Center
12:10PM 38.8603 -108.7919 248° West 437 503 38,000  Level Denver Center
12:11PM 38.8097 -108.9547 248° West 437 503 38,000  Level Denver Center
12:12PM 38.7667 -109.0931 248° West 434 499 38,000  Level Denver Center
12:13PM 38.7156 -109.2542 248° West 437 503 38,000  Level Denver Center
12:14PM 38.6631 -109.4131 247° West 433 498 38,000  Level Denver Center
12:15PM 38.6139 -109.5739 249° West 433 498 38,000  Level Denver Center
12:16PM 38.5686 -109.7069 247° West 427 491 38,000  Level Denver Center
12:17PM 38.5186 -109.8683 248° West 436 502 38,000  Level Denver Center
12:18PM 38.4744 -110.0000 247° West 422 486 38,000  Level Denver Center
12:19PM 38.4222 -110.1589 247° West 433 498 38,000 -60 Level Denver Center
12:20PM 38.3792 -110.2672 243° Southwest 431 496 37,900 -480 Descending Denver Center
12:21PM 38.3025 -110.4392 240° Southwest 438 504 37,100 -720 Descending Denver Center
12:22PM 38.2439 -110.5683 240° Southwest 441 507 36,500 -780 Descending Denver Center
12:23PM 38.1744 -110.7219 240° Southwest 448 516 35,600 -900 Descending Denver Center
12:25PM 38.1028 -110.8756 239° Southwest 451 519 34,500 -1,020 Descending Salt Lake Center
12:26PM 38.0358 -111.0236 240° Southwest 454 522 33,400 -1,020 Descending Salt Lake Center
12:27PM 37.9722 -111.1644 240° Southwest 459 528 32,400 -720 Descending Salt Lake Center
12:28PM 37.9081 -111.3028 240° Southwest 457 526 32,000 -240 Descending Salt Lake Center
12:29PM 37.8464 -111.4381 240° Southwest 447 514 32,000  Level Salt Lake Center
12:30PM 37.7864 -111.5719 240° Southwest 441 507 32,000  Level Salt Lake Center
12:31PM 37.7106 -111.7292 239° Southwest 438 504 32,000  Level Salt Lake Center
12:32PM 37.6497 -111.8603 240° Southwest 434 499 32,000  Level Salt Lake Center
12:33PM 37.5897 -111.9922 240° Southwest 433 498 32,000  Level Salt Lake Center
12:34PM 37.5275 -112.1228 239° Southwest 434 499 32,000  Level Salt Lake Center
12:35PM 37.4658 -112.2531 239° Southwest 433 498 32,000  Level Salt Lake Center
12:36PM 37.4039 -112.3833 239° Southwest 432 497 32,000 -420 Level Salt Lake Center
12:37PM 37.3406 -112.5153 239° Southwest 435 501 31,200 -1,140 Descending Salt Lake Center
12:38PM 37.2625 -112.6814 239° Southwest 451 519 29,700 -1,320 Descending Salt Lake Center
12:39PM 37.1953 -112.8194 239° Southwest 458 527 28,500 -1,200 Descending Salt Lake Center
12:40PM 37.1281 -112.9572 239° Southwest 460 529 27,200 -1,260 Descending Salt Lake Center
12:41PM 37.0625 -113.0936 239° Southwest 457 526 25,900 -1,260 Descending Salt Lake Center
12:42PM 36.9969 -113.2297 239° Southwest 456 525 24,600 -1,260 Descending Salt Lake Center
12:43PM 36.9311 -113.3614 238° Southwest 449 517 23,300 -780 Descending Salt Lake Center
12:44PM 36.8678 -113.4911 239° Southwest 441 507 23,000 -180 Descending Salt Lake Center
12:45PM 36.8181 -113.5936 239° Southwest 435 501 23,000  Level Los Angeles Center
12:46PM 36.7558 -113.7189 238° Southwest 428 493 23,000 -840 Level Los Angeles Center
12:47PM 36.6925 -113.8450 238° Southwest 428 493 21,300 -1,860 Descending Los Angeles Center
12:48PM 36.6322 -113.9694 239° Southwest 421 484 19,200 -2,160 Descending Los Angeles Center
12:49PM 36.5614 -114.1078 238° Southwest 398 458 16,900 -2,040 Descending Los Angeles Center
12:50PM 36.5206 -114.2036 242° Southwest 399 459 15,500 -1,740 Descending Los Angeles Center
12:51PM 36.4847 -114.2856 241° Southwest 389 448 14,300 -1,560 Descending Los Angeles Center
12:51PM 36.4600 -114.3353 238° Southwest 381 438 13,500 -1,740 Descending Los Angeles Center
12:52PM 36.4281 -114.4094 242° Southwest 365 420 12,400 -960 Descending Los Angeles Center
12:53PM 36.3703 -114.4908 229° Southwest 308 354 12,000 -480 Descending Los Angeles Center
12:53PM 36.3564 -114.5139 233° Southwest 293 337 11,700 -1,020 Descending Los Angeles Center
12:54PM 36.3069 -114.6192 240° Southwest 290 334 10,500 -1,140 Descending Los Angeles Center
12:55PM 36.2856 -114.6639 239° Southwest 305 351 10,000 -1,020 Descending Los Angeles Center
12:55PM 36.2608 -114.7097 236° Southwest 303 349 9,500 -1,020 Descending Los Angeles Center
12:56PM 36.2306 -114.7678 237° Southwest 311 358 8,900 -1,020 Descending Los Angeles Center
12:57PM 36.1853 -114.8575 238° Southwest 307 353 7,900 -900 Descending Los Angeles Center
12:58PM 36.1442 -114.9353 237° Southwest 299 344 7,200 -720 Descending Los Angeles Center
12:59PM 36.1403 -114.9764 263° West 291 335 6,700 -780 Descending Los Angeles Center
01:00PM 36.1689 -115.0511 295° West 211 243 5,800 -1,440 Descending Los Angeles Center
01:01PM 36.1586 -115.1181 259° West 172 198 3,700 -1,620 Descending Los Angeles Center
01:02PM 36.1208 -115.1433 208° Southwest 161 185 2,500 -720 Descending Los Angeles Center
01:03PM 36.0861 -115.1636 205° Southwest 157 181 2,300 -240 Descending Los Angeles Center
01:05PM 36.0801 -115.1523 219° Southwest  Level Estimated